createdAt,value
2022-11-10T00:01:47.085Z,20.10
2022-11-10T00:04:46.350Z,20.10
2022-11-10T00:07:44.725Z,20.20
2022-11-10T00:10:59.445Z,20.40
2022-11-10T00:14:13.235Z,20.60
2022-11-10T00:17:12.786Z,20.80
2022-11-10T00:20:12.189Z,20.90
2022-11-10T00:23:11.506Z,21.00
2022-11-10T00:26:13.842Z,21.10
2022-11-10T00:29:13.087Z,21.20
2022-11-10T00:32:12.021Z,21.20
2022-11-10T00:35:11.416Z,21.30
2022-11-10T00:38:09.780Z,21.30
2022-11-10T00:41:08.839Z,21.30
2022-11-10T00:44:07.219Z,21.40
2022-11-10T00:47:06.882Z,21.40
2022-11-10T00:50:05.582Z,21.50
2022-11-10T00:53:04.862Z,21.50
2022-11-10T00:56:03.254Z,21.50
2022-11-10T00:59:02.241Z,21.50
2022-11-10T01:02:00.679Z,21.60
2022-11-10T01:04:59.958Z,21.60
2022-11-10T01:08:00.193Z,21.60
2022-11-10T01:11:09.760Z,21.60
2022-11-10T01:14:08.882Z,21.60
2022-11-10T01:17:07.847Z,21.70
2022-11-10T01:20:09.286Z,21.70
2022-11-10T01:23:08.281Z,21.70
2022-11-10T01:26:08.460Z,21.70
2022-11-10T01:29:07.652Z,21.70
2022-11-10T01:32:06.777Z,21.70
2022-11-10T01:35:06.631Z,21.70
2022-11-10T01:38:05.066Z,21.80
2022-11-10T01:41:06.904Z,21.80
2022-11-10T01:44:23.433Z,21.80
2022-11-10T01:47:22.686Z,21.80
2022-11-10T01:50:22.905Z,21.80
2022-11-10T01:53:25.978Z,21.80
2022-11-10T01:56:26.332Z,21.80
2022-11-10T01:59:28.656Z,21.70
2022-11-10T02:02:34.429Z,21.80
2022-11-10T02:05:33.492Z,21.80
2022-11-10T02:08:32.305Z,21.80
2022-11-10T02:11:32.771Z,21.80
2022-11-10T02:14:31.589Z,21.80
2022-11-10T02:17:30.909Z,21.80
2022-11-10T02:20:29.376Z,21.80
2022-11-10T02:23:49.264Z,21.80
2022-11-10T02:26:54.648Z,21.80
2022-11-10T02:29:54.245Z,21.80
2022-11-10T02:32:52.646Z,21.80
2022-11-10T02:35:51.867Z,21.80
2022-11-10T02:38:50.389Z,21.90
2022-11-10T02:41:49.411Z,21.90
2022-11-10T02:44:48.488Z,21.80
2022-11-10T02:47:47.652Z,21.90
2022-11-10T02:50:46.271Z,21.90
2022-11-10T02:53:45.385Z,21.90
2022-11-10T02:56:44.208Z,21.80
2022-11-10T02:59:43.235Z,21.70
2022-11-10T03:02:41.709Z,21.50
2022-11-10T03:05:40.905Z,21.40
2022-11-10T03:08:39.791Z,21.30
2022-11-10T03:11:38.884Z,21.20
2022-11-10T03:15:14.162Z,21.20
2022-11-10T03:18:13.202Z,21.20
2022-11-10T03:21:11.485Z,21.10
2022-11-10T03:24:10.498Z,21.10
2022-11-10T03:27:08.654Z,21.00
2022-11-10T03:30:08.394Z,21.00
2022-11-10T03:33:07.019Z,21.00
2022-11-10T03:36:06.318Z,21.00
2022-11-10T03:39:04.798Z,20.90
2022-11-10T03:42:03.829Z,20.90
2022-11-10T03:45:02.746Z,20.90
2022-11-10T03:48:01.575Z,20.80
2022-11-10T03:51:00.003Z,20.90
2022-11-10T03:53:58.749Z,20.80
2022-11-10T03:56:57.312Z,20.80
2022-11-10T03:59:56.030Z,20.80
2022-11-10T04:02:54.229Z,20.80
2022-11-10T04:06:08.385Z,20.80
2022-11-10T04:09:07.981Z,20.80
2022-11-10T04:12:24.948Z,20.90
2022-11-10T04:15:38.907Z,21.10
2022-11-10T04:18:37.858Z,21.30
2022-11-10T04:21:36.179Z,21.40
2022-11-10T04:24:34.931Z,21.50
2022-11-10T04:27:33.324Z,21.60
2022-11-10T04:30:32.039Z,21.70
2022-11-10T04:33:30.264Z,21.70
2022-11-10T04:36:32.196Z,21.80
2022-11-10T04:39:30.384Z,21.80
2022-11-10T04:42:29.082Z,21.80
2022-11-10T04:45:27.537Z,21.90
2022-11-10T04:48:27.654Z,21.90
2022-11-10T04:51:29.084Z,21.90
2022-11-10T04:54:27.935Z,21.90
2022-11-10T04:57:26.627Z,21.90
2022-11-10T05:00:25.583Z,21.90
2022-11-10T05:03:24.310Z,22.00
2022-11-10T05:06:23.540Z,22.00
2022-11-10T05:09:21.712Z,22.00
2022-11-10T05:12:22.410Z,22.00
2022-11-10T05:15:21.133Z,22.10
2022-11-10T05:18:20.291Z,22.10
2022-11-10T05:21:18.480Z,22.10
2022-11-10T05:24:17.244Z,22.10
2022-11-10T05:27:15.426Z,22.10
2022-11-10T05:30:14.573Z,22.10
2022-11-10T05:33:12.769Z,22.10
2022-11-10T05:36:11.592Z,22.20
2022-11-10T05:39:09.971Z,22.20
2022-11-10T05:42:08.958Z,22.20
2022-11-10T05:45:07.809Z,22.20
2022-11-10T05:48:07.393Z,22.20
2022-11-10T05:51:05.847Z,22.20
2022-11-10T05:54:05.048Z,22.20
2022-11-10T05:57:03.301Z,22.20
2022-11-10T06:00:02.191Z,22.20
2022-11-10T06:03:06.282Z,22.20
2022-11-10T06:06:05.601Z,22.30
2022-11-10T06:09:03.865Z,22.20
2022-11-10T06:12:03.998Z,22.20
2022-11-10T06:15:03.501Z,22.30
2022-11-10T06:18:02.604Z,22.30
2022-11-10T06:21:00.915Z,22.30
2022-11-10T06:23:59.658Z,22.30
2022-11-10T06:26:57.973Z,22.30
2022-11-10T06:29:56.745Z,22.30
2022-11-10T06:32:55.500Z,22.30
2022-11-10T06:35:54.780Z,22.30
2022-11-10T06:38:52.921Z,22.30
2022-11-10T06:41:51.801Z,22.30
2022-11-10T06:44:50.049Z,22.40
2022-11-10T06:47:49.273Z,22.40
2022-11-10T06:50:47.412Z,22.40
2022-11-10T06:53:46.395Z,22.40
2022-11-10T06:56:44.840Z,22.40
2022-11-10T06:59:43.808Z,22.40
2022-11-10T07:02:42.015Z,22.40
2022-11-10T07:05:41.069Z,22.40
2022-11-10T07:08:39.367Z,22.40
2022-11-10T07:11:38.139Z,22.40
2022-11-10T07:14:36.538Z,22.40
2022-11-10T07:17:41.429Z,22.40
2022-11-10T07:20:39.828Z,22.40
2022-11-10T07:23:38.669Z,22.40
2022-11-10T07:26:37.147Z,22.40
2022-11-10T07:29:35.876Z,22.40
2022-11-10T07:32:34.171Z,22.40
2022-11-10T07:35:34.898Z,22.40
2022-11-10T07:38:33.274Z,22.40
2022-11-10T07:41:32.142Z,22.30
2022-11-10T07:44:30.814Z,22.20
2022-11-10T07:47:29.622Z,22.10
2022-11-10T07:50:28.638Z,22.00
2022-11-10T07:53:27.482Z,21.90
2022-11-10T07:56:25.898Z,21.90
2022-11-10T07:59:25.210Z,21.80
2022-11-10T08:02:25.291Z,21.80
2022-11-10T08:05:24.335Z,21.70
2022-11-10T08:08:22.752Z,21.70
2022-11-10T08:11:21.821Z,21.70
2022-11-10T08:14:20.284Z,21.60
2022-11-10T08:17:19.398Z,21.60
2022-11-10T08:20:18.893Z,21.60
2022-11-10T08:23:18.722Z,21.60
2022-11-10T08:26:18.345Z,21.60
2022-11-10T08:29:17.206Z,21.50
2022-11-10T08:32:27.887Z,21.50
2022-11-10T08:35:29.853Z,21.50
2022-11-10T08:38:28.550Z,21.50
2022-11-10T08:41:27.783Z,21.50
2022-11-10T08:44:26.119Z,21.50
2022-11-10T08:47:24.956Z,21.50
2022-11-10T08:50:23.386Z,21.40
2022-11-10T08:53:25.421Z,21.50
2022-11-10T08:56:23.957Z,21.40
2022-11-10T08:59:22.932Z,21.40
2022-11-10T09:02:21.469Z,21.40
2022-11-10T09:05:20.556Z,21.40
2022-11-10T09:08:19.462Z,21.30
2022-11-10T09:11:18.446Z,21.40
2022-11-10T09:14:16.829Z,21.30
2022-11-10T09:17:15.745Z,21.30
2022-11-10T09:20:14.342Z,21.30
2022-11-10T09:23:16.984Z,21.30
2022-11-10T09:26:15.587Z,21.30
2022-11-10T09:29:14.590Z,21.30
2022-11-10T09:32:12.949Z,21.30
2022-11-10T09:35:13.819Z,21.30
2022-11-10T09:38:12.595Z,21.30
2022-11-10T09:41:15.933Z,21.30
2022-11-10T09:44:24.930Z,21.30
2022-11-10T09:47:58.652Z,21.30
2022-11-10T09:50:54.944Z,21.30
2022-11-10T09:54:26.654Z,21.20
2022-11-10T09:57:29.625Z,21.20
2022-11-10T10:00:32.334Z,21.20
2022-11-10T10:03:32.522Z,21.20
2022-11-10T10:06:49.991Z,21.30
2022-11-10T10:10:17.098Z,21.20
2022-11-10T10:13:28.310Z,21.20
2022-11-10T10:16:49.250Z,21.20
2022-11-10T10:20:04.000Z,21.20
2022-11-10T10:23:30.493Z,21.10
2022-11-10T10:26:41.377Z,21.10
2022-11-10T10:29:44.904Z,21.10
2022-11-10T10:32:43.668Z,21.10
2022-11-10T10:35:44.103Z,21.10
2022-11-10T10:38:44.913Z,21.10
2022-11-10T10:41:46.377Z,21.10
2022-11-10T10:45:12.771Z,21.10
2022-11-10T10:48:28.537Z,21.10
2022-11-10T10:51:30.945Z,21.10
2022-11-10T10:54:32.895Z,21.10
2022-11-10T10:57:31.613Z,21.10
2022-11-10T11:00:29.924Z,21.10
2022-11-10T11:03:37.978Z,21.10
2022-11-10T11:06:36.936Z,21.00
2022-11-10T11:09:44.992Z,21.00
2022-11-10T11:12:43.157Z,21.00
2022-11-10T11:15:41.919Z,21.00
2022-11-10T11:18:41.051Z,21.00
2022-11-10T11:21:54.605Z,21.00
2022-11-10T11:25:14.940Z,21.00
2022-11-10T11:28:25.849Z,21.00
2022-11-10T11:31:46.067Z,21.00
2022-11-10T11:34:58.316Z,21.00
2022-11-10T11:38:14.281Z,20.90
2022-11-10T11:41:48.565Z,21.00
2022-11-10T11:45:07.852Z,21.00
2022-11-10T11:48:39.433Z,20.90
2022-11-10T11:51:55.603Z,20.90
2022-11-10T11:55:18.537Z,20.90
2022-11-10T11:58:32.476Z,20.90
2022-11-10T12:01:50.400Z,20.90
2022-11-10T12:05:12.536Z,20.90
2022-11-10T12:08:32.970Z,20.90
2022-11-10T12:11:54.601Z,20.90
2022-11-10T12:15:18.951Z,20.90
2022-11-10T12:18:35.760Z,20.80
2022-11-10T12:21:46.310Z,20.80
2022-11-10T12:25:09.264Z,20.80
2022-11-10T12:28:21.151Z,20.80
2022-11-10T12:31:24.042Z,20.80
2022-11-10T12:34:43.348Z,20.80
2022-11-10T12:37:48.396Z,20.80
2022-11-10T12:40:51.293Z,20.80
2022-11-10T12:44:24.834Z,20.80
2022-11-10T12:47:28.003Z,20.80
2022-11-10T12:50:41.859Z,20.80
2022-11-10T12:53:42.877Z,20.70
2022-11-10T12:56:49.475Z,20.70
2022-11-10T12:59:57.826Z,20.90
2022-11-10T13:02:57.022Z,21.20
2022-11-10T13:06:02.332Z,21.40
2022-11-10T13:09:00.742Z,21.50
2022-11-10T13:12:18.392Z,21.70
2022-11-10T13:15:47.526Z,21.80
2022-11-10T13:18:54.725Z,21.80
2022-11-10T13:22:12.099Z,21.80
2022-11-10T13:25:41.791Z,21.90
2022-11-10T13:29:00.811Z,21.90
2022-11-10T13:32:21.597Z,22.00
2022-11-10T13:35:55.148Z,22.00
2022-11-10T13:38:56.189Z,22.00
2022-11-10T13:42:24.342Z,22.00
2022-11-10T13:45:41.265Z,21.90
2022-11-10T13:49:02.799Z,21.80
2022-11-10T13:52:19.182Z,21.70
2022-11-10T13:55:41.071Z,21.50
2022-11-10T13:58:44.812Z,21.40
2022-11-10T14:01:43.052Z,21.30
2022-11-10T14:04:45.617Z,21.30
2022-11-10T14:07:46.832Z,21.20
2022-11-10T14:10:55.666Z,21.30
2022-11-10T14:13:59.872Z,21.20
2022-11-10T14:16:59.583Z,21.20
2022-11-10T14:19:57.872Z,21.10
2022-11-10T14:22:57.928Z,21.10
2022-11-10T14:26:03.903Z,21.10
2022-11-10T14:29:22.819Z,21.10
2022-11-10T14:32:25.234Z,21.10
2022-11-10T14:35:27.885Z,21.10
2022-11-10T14:38:31.909Z,21.00
2022-11-10T14:41:30.671Z,21.00
2022-11-10T14:44:31.049Z,21.00
2022-11-10T14:47:32.892Z,21.00
2022-11-10T14:50:35.151Z,21.00
2022-11-10T14:53:40.024Z,21.00
2022-11-10T14:56:39.274Z,21.00
2022-11-10T14:59:38.765Z,20.90
2022-11-10T15:02:37.682Z,20.90
2022-11-10T15:05:37.725Z,20.90
2022-11-10T15:08:36.988Z,20.90
2022-11-10T15:11:39.186Z,20.90
2022-11-10T15:14:40.293Z,20.90
2022-11-10T15:17:54.664Z,20.90
2022-11-10T15:21:11.399Z,20.90
2022-11-10T15:24:12.198Z,20.90
2022-11-10T15:27:29.213Z,20.90
2022-11-10T15:30:28.042Z,20.80
2022-11-10T15:33:31.431Z,20.80
2022-11-10T15:36:33.383Z,20.80
2022-11-10T15:39:31.820Z,20.80
2022-11-10T15:42:30.949Z,20.80
2022-11-10T15:45:29.125Z,20.70
2022-11-10T15:48:38.500Z,20.80
2022-11-10T15:51:36.747Z,20.70
2022-11-10T15:54:37.296Z,20.70
2022-11-10T15:57:35.644Z,20.70
2022-11-10T16:00:34.734Z,20.70
2022-11-10T16:03:33.189Z,20.70
2022-11-10T16:06:32.226Z,20.70
2022-11-10T16:09:30.476Z,20.70
2022-11-10T16:12:30.331Z,20.70
2022-11-10T16:15:29.772Z,20.70
2022-11-10T16:18:30.958Z,20.70
2022-11-10T16:21:30.201Z,20.70
2022-11-10T16:24:28.970Z,20.70
2022-11-10T16:27:27.379Z,20.70
2022-11-10T16:30:26.124Z,20.60
2022-11-10T16:33:28.180Z,20.70
2022-11-10T16:36:30.366Z,20.60
2022-11-10T16:39:30.301Z,20.60
2022-11-10T16:42:29.085Z,20.60
2022-11-10T16:45:30.539Z,20.60
2022-11-10T16:48:32.333Z,20.60
2022-11-10T16:51:49.028Z,20.60
2022-11-10T16:54:47.902Z,20.60
2022-11-10T16:57:46.113Z,20.60
2022-11-10T17:00:46.804Z,20.60
2022-11-10T17:03:50.117Z,20.60
2022-11-10T17:06:49.008Z,20.60
2022-11-10T17:09:47.200Z,20.60
2022-11-10T17:12:46.337Z,20.60
2022-11-10T17:15:46.033Z,20.60
2022-11-10T17:18:45.399Z,20.60
2022-11-10T17:21:43.957Z,20.50
2022-11-10T17:24:42.820Z,20.60
2022-11-10T17:27:40.999Z,20.60
2022-11-10T17:30:40.915Z,20.50
2022-11-10T17:33:39.336Z,20.50
2022-11-10T17:36:38.909Z,20.50
2022-11-10T17:39:37.166Z,20.50
2022-11-10T17:42:36.204Z,20.50
2022-11-10T17:45:34.476Z,20.50
2022-11-10T17:48:33.284Z,20.50
2022-11-10T17:51:33.997Z,20.50
2022-11-10T17:54:33.115Z,20.50
2022-11-10T17:57:31.563Z,20.50
2022-11-10T18:00:30.715Z,20.50
2022-11-10T18:03:29.001Z,20.50
2022-11-10T18:06:27.955Z,20.50
2022-11-10T18:09:26.077Z,20.50
2022-11-10T18:12:27.943Z,20.50
2022-11-10T18:15:26.439Z,20.50
2022-11-10T18:18:25.489Z,20.50
2022-11-10T18:21:23.793Z,20.50
2022-11-10T18:24:22.618Z,20.50
2022-11-10T18:27:20.971Z,20.50
2022-11-10T18:30:20.275Z,20.50
2022-11-10T18:33:18.581Z,20.40
2022-11-10T18:36:17.578Z,20.40
2022-11-10T18:39:15.761Z,20.40
2022-11-10T18:42:14.821Z,20.40
2022-11-10T18:45:13.527Z,20.40
2022-11-10T18:48:12.255Z,20.40
2022-11-10T18:51:10.804Z,20.40
2022-11-10T18:54:09.729Z,20.40
2022-11-10T18:57:07.911Z,20.40
2022-11-10T19:00:07.763Z,20.40
2022-11-10T19:03:05.902Z,20.40
2022-11-10T19:06:06.037Z,20.40
2022-11-10T19:09:05.834Z,20.40
2022-11-10T19:12:04.865Z,20.40
2022-11-10T19:15:03.076Z,20.40
2022-11-10T19:18:02.066Z,20.40
2022-11-10T19:21:05.973Z,20.40
2022-11-10T19:24:04.910Z,20.40
2022-11-10T19:27:03.294Z,20.40
2022-11-10T19:30:02.190Z,20.40
2022-11-10T19:33:00.413Z,20.40
2022-11-10T19:36:04.735Z,20.40
2022-11-10T19:39:03.084Z,20.40
2022-11-10T19:42:02.252Z,20.40
2022-11-10T19:45:01.096Z,20.40
2022-11-10T19:48:00.572Z,20.30
2022-11-10T19:51:00.742Z,20.40
2022-11-10T19:54:02.226Z,20.30
2022-11-10T19:57:01.606Z,20.30
2022-11-10T20:00:00.549Z,20.30
2022-11-10T20:02:58.985Z,20.30
2022-11-10T20:06:02.886Z,20.30
2022-11-10T20:09:01.198Z,20.30
2022-11-10T20:12:00.064Z,20.30
2022-11-10T20:14:58.356Z,20.30
2022-11-10T20:17:57.209Z,20.30
2022-11-10T20:20:55.548Z,20.30
2022-11-10T20:23:56.347Z,20.30
2022-11-10T20:26:54.671Z,20.30
2022-11-10T20:29:53.668Z,20.20
2022-11-10T20:32:52.369Z,20.30
2022-11-10T20:35:51.158Z,20.20
2022-11-10T20:38:50.996Z,20.30
2022-11-10T20:41:51.457Z,20.30
2022-11-10T20:44:50.048Z,20.30
2022-11-10T20:47:48.791Z,20.30
2022-11-10T20:50:47.109Z,20.30
2022-11-10T20:53:46.754Z,20.30
2022-11-10T20:56:45.321Z,20.30
2022-11-10T20:59:44.148Z,20.20
2022-11-10T21:02:42.312Z,20.20
2022-11-10T21:05:40.999Z,20.20
2022-11-10T21:08:39.191Z,20.20
2022-11-10T21:11:53.495Z,20.20
2022-11-10T21:14:51.717Z,20.20
2022-11-10T21:17:50.509Z,20.20
2022-11-10T21:20:49.018Z,20.20
2022-11-10T21:23:47.885Z,20.20
2022-11-10T21:26:46.050Z,20.20
2022-11-10T21:29:45.096Z,20.20
2022-11-10T21:32:43.361Z,20.20
2022-11-10T21:35:42.124Z,20.20
2022-11-10T21:38:40.281Z,20.20
2022-11-10T21:41:39.480Z,20.10
2022-11-10T21:44:38.016Z,20.10
2022-11-10T21:47:36.984Z,20.20
2022-11-10T21:50:35.148Z,20.20
2022-11-10T21:53:34.841Z,20.20
2022-11-10T21:56:33.003Z,20.10
2022-11-10T21:59:31.786Z,20.20
2022-11-10T22:02:30.121Z,20.20
2022-11-10T22:05:29.296Z,20.20
2022-11-10T22:08:27.477Z,20.10
2022-11-10T22:11:41.648Z,20.10
2022-11-10T22:14:55.129Z,20.10
2022-11-10T22:18:09.489Z,20.10
2022-11-10T22:21:09.311Z,20.10
2022-11-10T22:24:23.756Z,20.10
2022-11-10T22:27:22.196Z,20.20
2022-11-10T22:30:20.868Z,20.20
2022-11-10T22:33:34.575Z,20.20
2022-11-10T22:36:33.950Z,20.20
2022-11-10T22:39:51.969Z,20.10
2022-11-10T22:43:06.072Z,20.10
2022-11-10T22:46:04.412Z,20.10
2022-11-10T22:49:06.342Z,20.10
2022-11-10T22:52:04.533Z,20.10
2022-11-10T22:55:03.273Z,20.10
2022-11-10T22:58:01.687Z,20.10
2022-11-10T23:01:10.030Z,20.10
2022-11-10T23:04:08.368Z,20.10
2022-11-10T23:07:07.332Z,20.10
2022-11-10T23:10:06.042Z,20.10
2022-11-10T23:13:04.911Z,20.10
2022-11-10T23:16:05.557Z,20.00
2022-11-10T23:19:04.673Z,20.00
2022-11-10T23:22:02.853Z,20.10
2022-11-10T23:25:01.814Z,20.10
2022-11-10T23:27:59.945Z,20.10
2022-11-10T23:31:08.812Z,20.10
2022-11-10T23:34:07.721Z,20.10
2022-11-10T23:37:06.608Z,20.00
2022-11-10T23:40:05.308Z,20.00
2022-11-10T23:43:04.050Z,20.00
2022-11-10T23:46:07.398Z,20.00
2022-11-10T23:49:06.788Z,20.00
2022-11-10T23:52:05.058Z,20.00
2022-11-10T23:55:04.072Z,20.00
2022-11-10T23:58:02.785Z,20.10
